Time;durP1;ratioP1;P1;durP2;ratioP2;P2;SDS_P1;SDS_P2;PMS_P1;PMS_P2;Temp;Humidity;BMP_temperature;BMP_pressure;BME280_temperature;BME280_humidity;BME280_pressure;Samples;Min_cycle;Max_cycle;Signal;HPM_P1;HPM_P2
2022/03/31 00:00:32;;;;;;;38.70;8.07;;;;;;;13.58;46.17;94212.84;6300942;22;20009;-85
2022/03/31 00:02:58;;;;;;;34.67;7.90;;;;;;;13.19;46.09;94152.53;6302406;22;20007;-84
2022/03/31 00:05:24;;;;;;;31.40;8.05;;;;;;;12.59;45.77;94078.75;6304769;22;20074;-84
2022/03/31 00:08:13;;;;;;;27.13;7.57;;;;;;;13.66;45.59;94204.81;6308600;22;20027;-83
2022/03/31 00:10:46;;;;;;;35.78;7.95;;;;;;;13.62;45.48;94158.59;6301623;22;20056;-83
2022/03/31 00:13:15;;;;;;;36.22;8.40;;;;;;;11.16;46.36;93840.38;6299307;22;20011;-82
2022/03/31 00:15:41;;;;;;;35.20;7.97;;;;;;;11.27;45.97;93802.94;6300748;22;20486;-82
2022/03/31 00:18:08;;;;;;;28.42;7.20;;;;;;;12.63;45.85;93997.25;6299124;22;20007;-83
2022/03/31 00:34:00;;;;;;;31.80;7.20;;;;;;;12.92;45.33;94068.44;6301133;22;20338;-83
2022/03/31 00:36:26;;;;;;;30.33;6.57;;;;;;;13.64;44.72;94175.06;6298532;22;20007;-82
2022/03/31 00:41:37;;;;;;;28.85;6.63;;;;;;;13.87;44.50;94183.63;6300804;22;20353;-83
2022/03/31 00:44:04;;;;;;;36.50;7.00;;;;;;;13.32;44.23;94067.16;6301222;22;20026;-82
2022/03/31 00:46:30;;;;;;;55.38;8.07;;;;;;;13.46;45.00;94101.59;6298932;22;20042;-83
2022/03/31 00:48:56;;;;;;;44.72;7.45;;;;;;;12.15;45.04;93934.41;6301995;22;20038;-83
2022/03/31 00:51:21;;;;;;;29.73;6.85;;;;;;;12.89;44.48;94003.31;6300785;22;20007;-83
2022/03/31 00:53:47;;;;;;;45.60;6.70;;;;;;;12.86;44.41;94035.13;6301652;22;20003;-83
2022/03/31 00:56:12;;;;;;;33.22;6.60;;;;;;;13.42;44.12;94079.38;6300922;22;20018;-83
2022/03/31 00:58:39;;;;;;;32.90;6.55;;;;;;;13.67;43.64;94099.81;6302277;22;20132;-83
2022/03/31 01:01:04;;;;;;;36.80;7.07;;;;;;;13.59;44.04;94067.84;6298592;22;20010;-83
2022/03/31 01:03:30;;;;;;;27.13;5.97;;;;;;;13.32;45.03;94075.16;6300059;22;20007;-82
2022/03/31 01:05:56;;;;;;;32.97;6.97;;;;;;;13.48;44.67;94084.22;6300309;22;20014;-82
2022/03/31 01:08:22;;;;;;;32.15;7.07;;;;;;;13.37;44.34;94039.56;6298680;22;20105;-83
2022/03/31 01:10:49;;;;;;;30.15;6.28;;;;;;;14.22;44.42;94161.06;6299324;22;20452;-83
2022/03/31 01:13:14;;;;;;;28.65;6.97;;;;;;;13.29;45.04;94029.72;6298692;22;20007;-83
2022/03/31 01:15:40;;;;;;;40.58;7.40;;;;;;;13.27;44.67;94067.34;6300823;22;20265;-83
2022/03/31 01:18:06;;;;;;;25.77;6.07;;;;;;;12.73;44.44;93996.94;6298870;22;20003;-82
2022/03/31 01:20:33;;;;;;;29.73;6.65;;;;;;;13.20;44.69;94067.03;6300339;22;20413;-82
2022/03/31 01:23:00;;;;;;;27.20;6.85;;;;;;;13.15;45.12;94059.19;6300780;22;20015;-83
2022/03/31 01:25:26;;;;;;;38.25;6.63;;;;;;;13.12;44.71;94025.22;6299122;22;20064;-82
2022/03/31 01:27:52;;;;;;;25.98;6.90;;;;;;;13.71;44.97;94092.75;6300601;22;20015;-82
2022/03/31 01:30:21;;;;;;;37.55;6.40;;;;;;;13.48;44.73;94070.09;6299100;22;20423;-83
2022/03/31 01:32:48;;;;;;;31.50;5.90;;;;;;;11.58;45.55;93885.91;6300292;22;20003;-82
2022/03/31 01:35:15;;;;;;;31.05;7.40;;;;;;;12.90;45.16;94018.19;6300796;22;20084;-82
2022/03/31 01:37:43;;;;;;;31.00;6.85;;;;;;;13.42;44.70;94064.19;6301327;22;20006;-82
2022/03/31 01:40:09;;;;;;;28.17;6.18;;;;;;;13.88;44.96;94135.31;6300395;22;20007;-82
2022/03/31 01:42:35;;;;;;;32.40;6.38;;;;;;;13.83;45.05;94153.38;6300950;22;20010;-82
2022/03/31 01:45:03;;;;;;;37.35;6.45;;;;;;;13.78;44.92;94149.00;6300241;22;20011;-81
2022/03/31 01:47:28;;;;;;;26.90;7.05;;;;;;;12.88;45.08;94001.78;6298586;22;20014;-84
2022/03/31 01:49:54;;;;;;;31.73;7.03;;;;;;;13.55;44.98;94109.56;6300468;22;20031;-83
2022/03/31 01:52:22;;;;;;;30.60;6.43;;;;;;;13.09;44.58;94026.63;6298864;22;20346;-84
2022/03/31 01:54:48;;;;;;;35.40;6.85;;;;;;;13.31;44.36;94080.78;6298812;22;20101;-82
2022/03/31 01:57:14;;;;;;;28.75;6.40;;;;;;;14.00;43.92;94155.97;6298397;22;20361;-82
2022/03/31 01:59:43;;;;;;;32.95;6.65;;;;;;;13.16;43.95;94018.19;6300698;22;20004;-83
2022/03/31 02:02:12;;;;;;;38.13;6.97;;;;;;;13.24;43.74;94025.38;6298514;22;20019;-83
2022/03/31 02:04:38;;;;;;;35.17;6.82;;;;;;;12.92;43.46;93956.69;6298777;22;20012;-83
2022/03/31 02:07:04;;;;;;;36.47;7.70;;;;;;;13.24;43.91;94033.34;6297845;22;20619;-82
2022/03/31 02:09:29;;;;;;;32.03;6.63;;;;;;;13.36;43.99;94092.03;6300053;22;20041;-82
2022/03/31 02:11:58;;;;;;;32.15;6.80;;;;;;;13.87;43.84;94131.09;6300629;22;20474;-83
2022/03/31 02:14:24;;;;;;;37.58;5.93;;;;;;;12.98;44.00;93995.31;6298420;22;20477;-83
2022/03/31 02:16:49;;;;;;;33.75;6.55;;;;;;;13.85;43.37;94129.84;6299243;22;20011;-82
2022/03/31 02:19:15;;;;;;;27.13;5.57;;;;;;;13.93;43.23;94121.03;6298435;22;20015;-83
2022/03/31 02:21:41;;;;;;;33.92;6.75;;;;;;;12.64;43.49;93941.09;6300589;22;20046;-82
2022/03/31 02:24:08;;;;;;;23.98;6.18;;;;;;;13.47;43.29;94058.66;6298972;22;20034;-83
2022/03/31 02:26:35;;;;;;;26.77;6.53;;;;;;;13.51;43.71;94046.25;6300408;22;20068;-82
2022/03/31 02:29:01;;;;;;;33.83;6.18;;;;;;;13.93;43.38;94109.59;6298774;22;20015;-82
2022/03/31 02:31:27;;;;;;;28.40;6.95;;;;;;;13.40;43.14;94020.31;6300001;22;20029;-83
2022/03/31 02:33:52;;;;;;;28.25;6.22;;;;;;;13.36;43.84;94030.03;6299052;22;20086;-83
2022/03/31 02:36:18;;;;;;;31.13;6.82;;;;;;;12.65;44.41;93993.19;6299789;22;20007;-83
2022/03/31 02:38:43;;;;;;;35.47;6.25;;;;;;;9.20;44.08;93429.66;6298741;22;20086;-83
2022/03/31 02:41:09;;;;;;;36.25;6.22;;;;;;;12.91;43.85;93997.69;6300279;22;20007;-83
2022/03/31 02:43:34;;;;;;;25.23;6.32;;;;;;;12.82;43.26;93965.78;6298625;22;20007;-83
2022/03/31 02:46:00;;;;;;;25.67;6.47;;;;;;;12.98;43.64;94012.06;6300282;22;20082;-83
2022/03/31 02:48:25;;;;;;;32.45;6.82;;;;;;;12.54;43.81;93933.44;6298140;22;20077;-83
2022/03/31 02:50:51;;;;;;;28.45;6.53;;;;;;;12.86;43.82;93990.66;6300138;22;20394;-82
2022/03/31 02:56:01;;;;;;;38.65;6.68;;;;;;;13.11;43.65;93997.03;6300028;22;20503;-83
2022/03/31 02:58:27;;;;;;;38.25;7.38;;;;;;;12.69;44.01;93967.53;6298080;22;20008;-82
2022/03/31 03:00:52;;;;;;;37.60;7.13;;;;;;;12.16;44.61;93930.66;6298350;22;20007;-82
2022/03/31 03:03:19;;;;;;;27.98;6.90;;;;;;;13.41;44.51;94089.25;6297851;22;20018;-82
2022/03/31 03:05:45;;;;;;;32.05;6.05;;;;;;;12.25;44.64;93934.09;6300131;22;20003;-82
2022/03/31 03:08:11;;;;;;;29.20;6.65;;;;;;;12.50;44.43;93961.00;6299575;22;20039;-82
2022/03/31 03:10:37;;;;;;;25.33;7.32;;;;;;;13.49;45.06;94106.28;6298096;22;20112;-82
2022/03/31 03:13:03;;;;;;;25.58;6.30;;;;;;;13.33;44.74;94099.91;6298275;22;20034;-82
2022/03/31 03:15:28;;;;;;;35.28;7.47;;;;;;;13.06;44.55;94063.72;6300237;22;20381;-83
2022/03/31 03:17:54;;;;;;;35.70;7.30;;;;;;;12.50;44.41;93956.44;6300553;22;20000;-83
2022/03/31 03:20:20;;;;;;;20.63;7.25;;;;;;;12.42;44.52;93940.50;6297955;22;20030;-83
2022/03/31 03:22:48;;;;;;;28.20;7.28;;;;;;;12.84;45.40;94046.06;6299718;22;20007;-83
2022/03/31 03:25:15;;;;;;;36.90;7.47;;;;;;;12.80;45.01;93991.16;6299624;22;20074;-83
2022/03/31 03:27:42;;;;;;;30.77;8.40;;;;;;;12.49;45.04;93994.00;6300504;22;20499;-82
2022/03/31 03:30:09;;;;;;;27.65;7.55;;;;;;;13.11;45.25;94080.34;6303085;22;20038;-83
2022/03/31 03:32:36;;;;;;;32.70;7.63;;;;;;;12.88;46.50;94108.22;6298258;22;20118;-83
2022/03/31 03:35:07;;;;;;;24.08;6.75;;;;;;;11.86;46.11;93935.00;6299183;22;20015;-83
2022/03/31 03:37:33;;;;;;;28.10;7.40;;;;;;;13.06;45.36;94082.34;6302034;22;20291;-82
2022/03/31 03:40:02;;;;;;;31.38;8.10;;;;;;;12.72;45.65;94032.63;6299955;22;20280;-82
2022/03/31 03:42:28;;;;;;;31.77;7.95;;;;;;;12.14;46.01;93970.03;6300153;22;20014;-83
2022/03/31 03:44:54;;;;;;;39.70;9.50;;;;;;;13.14;45.15;94090.38;6301871;22;20011;-83
2022/03/31 03:47:20;;;;;;;43.78;7.65;;;;;;;12.24;46.48;93992.88;6299940;22;20015;-82
2022/03/31 03:49:45;;;;;;;37.97;7.05;;;;;;;12.15;46.09;93953.00;6301983;22;20014;-82
2022/03/31 03:52:11;;;;;;;35.15;8.73;;;;;;;13.04;45.10;94066.72;6301874;22;20008;-82
2022/03/31 03:54:36;;;;;;;27.08;7.82;;;;;;;12.31;45.36;93940.81;6300396;22;20043;-82
2022/03/31 03:57:02;;;;;;;25.35;6.80;;;;;;;11.54;45.58;93843.25;6300185;22;20354;-83
2022/03/31 03:59:28;;;;;;;35.38;7.78;;;;;;;12.19;45.66;93958.50;6300086;22;20010;-83
2022/03/31 04:01:54;;;;;;;31.23;8.32;;;;;;;13.03;45.39;94059.06;6299622;22;20072;-83
2022/03/31 04:04:19;;;;;;;36.53;7.07;;;;;;;12.06;45.55;93933.63;6302002;22;20029;-83
2022/03/31 04:06:45;;;;;;;25.05;7.70;;;;;;;12.67;45.38;94006.16;6298511;22;20019;-82
2022/03/31 04:09:10;;;;;;;26.52;8.13;;;;;;;11.95;45.07;93893.31;6299448;22;20011;-83
2022/03/31 04:11:35;;;;;;;26.00;8.27;;;;;;;12.76;45.07;93991.75;6299475;22;20011;-82
2022/03/31 04:14:01;;;;;;;28.52;7.40;;;;;;;12.05;45.08;93867.53;6299603;22;20003;-83
2022/03/31 04:16:26;;;;;;;26.73;7.57;;;;;;;13.42;44.92;94077.50;6300247;22;20438;-83
2022/03/31 04:18:52;;;;;;;23.35;7.95;;;;;;;12.42;45.42;93959.91;6299528;22;20541;-83
2022/03/31 04:21:17;;;;;;;38.70;9.40;;;;;;;12.69;45.28;93996.00;6296762;22;20015;-83
2022/03/31 04:23:43;;;;;;;24.75;7.53;;;;;;;13.28;45.49;94108.81;6301455;22;20092;-83
2022/03/31 04:26:09;;;;;;;32.05;7.78;;;;;;;11.84;46.57;93939.06;6297983;22;20079;-83
2022/03/31 04:28:34;;;;;;;35.45;8.75;;;;;;;12.70;45.76;94016.19;6294825;22;20019;-82
2022/03/31 04:31:00;;;;;;;33.33;8.45;;;;;;;12.40;46.11;93995.88;6292271;22;20026;-83
2022/03/31 04:33:27;;;;;;;33.08;7.85;;;;;;;12.35;46.30;94032.16;6285522;22;20022;-83
2022/03/31 04:35:52;;;;;;;24.80;7.90;;;;;;;12.16;46.28;93980.38;6284616;22;20011;-84
2022/03/31 04:38:20;;;;;;;24.38;7.15;;;;;;;12.75;46.08;94056.72;6290781;22;20400;-83
2022/03/31 04:40:45;;;;;;;38.70;8.15;;;;;;;12.16;46.25;93959.09;6291283;22;20015;-83
2022/03/31 04:43:13;;;;;;;38.65;8.05;;;;;;;12.83;45.89;94075.63;6291068;22;20094;-85
2022/03/31 04:45:48;;;;;;;34.20;7.68;;;;;;;11.08;46.87;93801.34;6286253;22;20007;-83
2022/03/31 04:48:14;;;;;;;39.47;8.73;;;;;;;13.08;47.39;94118.22;6291314;22;20019;-84
2022/03/31 04:50:39;;;;;;;46.10;8.75;;;;;;;10.59;47.41;93740.69;6288081;22;20444;-85
2022/03/31 04:53:06;;;;;;;40.38;8.48;;;;;;;12.54;48.40;94044.34;6288811;22;20003;-83
2022/03/31 04:55:32;;;;;;;35.63;8.10;;;;;;;12.20;48.31;94014.00;6287145;22;20042;-83
2022/03/31 04:57:58;;;;;;;38.83;8.40;;;;;;;12.41;48.45;94030.13;6289431;22;20010;-83
2022/03/31 05:00:23;;;;;;;40.40;8.05;;;;;;;12.39;48.15;94053.56;6289159;22;20640;-83
2022/03/31 05:02:49;;;;;;;31.88;8.27;;;;;;;11.72;47.54;93929.03;6288034;22;20007;-83
2022/03/31 05:05:15;;;;;;;36.08;8.45;;;;;;;12.71;47.46;94089.59;6282730;22;20581;-83
2022/03/31 05:07:41;;;;;;;29.75;7.75;;;;;;;12.42;47.57;94068.13;6288025;22;20057;-83
2022/03/31 05:10:07;;;;;;;34.78;7.25;;;;;;;12.35;48.22;94036.69;6286622;22;20473;-83
2022/03/31 05:12:34;;;;;;;36.03;7.90;;;;;;;12.17;47.80;93989.91;6288065;22;20007;-84
2022/03/31 05:14:59;;;;;;;41.65;9.98;;;;;;;12.15;48.71;93990.22;6291147;22;20137;-83
2022/03/31 05:17:27;;;;;;;61.15;9.18;;;;;;;12.11;48.67;93953.94;6286401;22;20405;-84
2022/03/31 05:19:52;;;;;;;44.88;9.40;;;;;;;11.50;49.15;93889.31;6290549;22;20067;-83
2022/03/31 05:22:18;;;;;;;47.30;9.48;;;;;;;11.47;48.74;93872.13;6287212;22;20046;-83
2022/03/31 05:24:43;;;;;;;33.58;8.73;;;;;;;12.17;48.76;93987.25;6286564;22;20007;-83
2022/03/31 05:27:09;;;;;;;39.40;9.95;;;;;;;12.63;48.34;94087.69;6287471;22;20108;-83
2022/03/31 05:29:35;;;;;;;31.40;8.57;;;;;;;12.85;48.62;94124.00;6286983;22;20389;-83
2022/03/31 05:32:00;;;;;;;43.47;8.27;;;;;;;10.07;48.06;93659.13;6289405;22;20488;-84
2022/03/31 05:34:26;;;;;;;38.55;9.18;;;;;;;12.80;48.85;94124.16;6286390;22;20034;-82
2022/03/31 05:36:52;;;;;;;40.42;8.60;;;;;;;8.13;49.53;93412.31;6287061;22;20011;-83
2022/03/31 05:39:18;;;;;;;45.85;8.63;;;;;;;9.74;50.42;93705.56;6286057;22;20115;-82
2022/03/31 05:41:46;;;;;;;39.88;9.15;;;;;;;7.46;50.50;93314.66;6286666;22;20007;-81
2022/03/31 05:44:12;;;;;;;44.15;8.20;;;;;;;9.17;50.10;93619.91;6286251;22;20231;-82
2022/03/31 05:46:37;;;;;;;45.33;9.02;;;;;;;12.64;50.84;94143.25;6287072;22;20463;-82
2022/03/31 05:49:03;;;;;;;44.22;8.90;;;;;;;10.60;50.62;93790.00;6285593;22;20011;-81
2022/03/31 05:51:32;;;;;;;42.03;8.70;;;;;;;8.77;51.09;93505.38;6284855;22;20254;-84
2022/03/31 05:53:58;;;;;;;50.92;11.25;;;;;;;11.42;51.30;93880.25;6283751;22;20192;-84
2022/03/31 05:56:23;;;;;;;56.10;10.75;;;;;;;10.56;51.25;93739.44;6282878;22;20152;-83
2022/03/31 05:58:49;;;;;;;52.60;10.25;;;;;;;12.42;51.57;94018.41;6285066;22;20556;-82
2022/03/31 06:01:15;;;;;;;58.58;11.43;;;;;;;12.49;51.26;93983.34;6285591;22;20038;-85
2022/03/31 06:03:40;;;;;;;47.08;9.65;;;;;;;13.15;51.26;94083.16;6286107;22;20018;-82
2022/03/31 06:06:06;;;;;;;35.95;8.48;;;;;;;12.99;51.85;94077.50;6284963;22;20018;-84
2022/03/31 06:08:32;;;;;;;47.30;10.48;;;;;;;11.86;51.95;93892.50;6285855;22;20015;-85
2022/03/31 06:10:57;;;;;;;56.38;11.82;;;;;;;12.73;51.67;93995.06;6279828;22;20255;-86
2022/03/31 06:13:23;;;;;;;59.03;11.10;;;;;;;12.88;50.88;94008.97;6283463;22;20273;-84
2022/03/31 06:15:48;;;;;;;66.43;10.23;;;;;;;13.39;51.19;94070.13;6286231;22;20010;-84
2022/03/31 06:18:15;;;;;;;59.80;11.95;;;;;;;12.76;51.16;93969.69;6280974;22;20520;-85
2022/03/31 06:20:40;;;;;;;51.13;11.85;;;;;;;11.50;51.56;93836.22;6278978;22;20054;-85
2022/03/31 06:23:06;;;;;;;56.22;11.82;;;;;;;11.28;53.94;93849.63;6284186;22;20015;-84
2022/03/31 06:25:37;;;;;;;50.15;12.30;;;;;;;11.93;55.49;93982.38;6259033;22;20162;-85
2022/03/31 06:28:03;;;;;;;38.47;10.30;;;;;;;7.42;56.33;93371.69;6288357;22;20067;-85
2022/03/31 06:30:28;;;;;;;48.10;11.68;;;;;;;8.47;55.64;93468.03;6287235;22;20040;-86
2022/03/31 06:32:58;;;;;;;46.38;10.00;;;;;;;12.53;56.46;94207.66;6288922;22;20018;-86
2022/03/31 06:35:23;;;;;;;43.97;11.50;;;;;;;6.70;56.27;93284.69;6293758;22;20015;-85
2022/03/31 06:37:49;;;;;;;52.45;9.73;;;;;;;7.61;56.41;93454.13;6296508;22;20007;-85
2022/03/31 06:40:16;;;;;;;62.25;10.75;;;;;;;6.78;56.88;93283.97;6288357;22;20583;-85
2022/03/31 06:42:43;;;;;;;51.35;10.10;;;;;;;8.66;56.99;93518.06;6281838;22;20105;-84
2022/03/31 06:45:12;;;;;;;49.30;10.70;;;;;;;12.12;56.29;94054.63;6290436;22;20093;-86
2022/03/31 06:47:39;;;;;;;66.20;11.30;;;;;;;12.74;55.82;94145.59;6285919;22;20038;-85
2022/03/31 06:50:06;;;;;;;46.83;9.52;;;;;;;8.79;55.37;93488.13;6286512;22;20420;-85
2022/03/31 06:52:32;;;;;;;77.32;16.00;;;;;;;10.88;55.45;93860.28;6287758;22;20003;-85
2022/03/31 06:54:57;;;;;;;61.08;10.73;;;;;;;10.79;55.20;93775.38;6286844;22;20087;-86
2022/03/31 06:57:23;;;;;;;41.95;10.15;;;;;;;11.96;55.50;93982.53;6288430;22;20379;-85
2022/03/31 06:59:50;;;;;;;51.83;9.57;;;;;;;13.03;55.34;94130.91;6289470;22;20021;-85
2022/03/31 07:02:18;;;;;;;35.95;8.70;;;;;;;12.08;54.84;93938.63;6287412;22;20007;-86
2022/03/31 07:04:46;;;;;;;49.20;12.25;;;;;;;11.57;54.80;93898.41;6289995;22;20153;-86
2022/03/31 07:07:12;;;;;;;56.53;11.20;;;;;;;11.55;54.81;93866.06;6281852;22;20076;-85
2022/03/31 07:09:37;;;;;;;51.42;10.52;;;;;;;11.23;54.46;93861.94;6291668;22;20023;-85
2022/03/31 07:12:06;;;;;;;53.15;11.00;;;;;;;11.34;54.69;93843.84;6291713;22;20018;-84
2022/03/31 07:14:35;;;;;;;53.22;11.27;;;;;;;11.34;54.94;93845.72;6295548;22;20359;-85
2022/03/31 07:17:01;;;;;;;57.38;12.50;;;;;;;13.06;54.74;94104.44;6291617;22;20022;-84
2022/03/31 07:19:26;;;;;;;57.97;11.23;;;;;;;10.65;54.54;93727.00;6291500;22;20017;-85
2022/03/31 07:21:52;;;;;;;60.38;12.85;;;;;;;11.58;54.94;93846.84;6290737;22;20090;-85
2022/03/31 07:24:17;;;;;;;45.97;12.68;;;;;;;10.75;54.50;93736.53;6290437;22;20096;-85
2022/03/31 07:26:44;;;;;;;60.42;13.23;;;;;;;12.52;55.61;93988.81;6293956;22;20501;-85
2022/03/31 07:29:09;;;;;;;50.63;11.50;;;;;;;13.48;54.15;94104.72;6288287;22;20034;-84
2022/03/31 07:31:38;;;;;;;51.75;10.63;;;;;;;11.73;55.35;93864.22;6286277;22;20015;-85
2022/03/31 07:34:03;;;;;;;60.92;12.50;;;;;;;10.85;54.37;93669.91;6288715;22;20072;-85
2022/03/31 07:36:31;;;;;;;56.38;11.93;;;;;;;13.25;53.86;94050.91;6287706;22;20448;-85
2022/03/31 07:38:57;;;;;;;56.88;11.35;;;;;;;13.54;53.69;94060.84;6291027;22;20022;-84
2022/03/31 07:41:22;;;;;;;82.00;13.02;;;;;;;11.69;53.32;93791.53;6285972;22;20438;-83
2022/03/31 07:43:48;;;;;;;65.30;12.38;;;;;;;13.89;53.34;94088.91;6290633;22;20072;-83
2022/03/31 07:46:13;;;;;;;59.67;13.55;;;;;;;11.78;53.85;93860.63;6291484;22;20011;-85
2022/03/31 07:48:39;;;;;;;50.70;11.85;;;;;;;13.36;54.13;94027.34;6291489;22;20022;-85
2022/03/31 07:51:05;;;;;;;55.63;13.57;;;;;;;11.50;53.63;93727.38;6284803;22;20015;-86
2022/03/31 07:53:34;;;;;;;60.88;13.23;;;;;;;13.74;53.23;94054.00;6291223;22;20430;-87
2022/03/31 07:56:03;;;;;;;75.40;13.82;;;;;;;11.63;53.86;93766.25;6285297;22;20257;-85
2022/03/31 07:58:29;;;;;;;68.95;13.73;;;;;;;13.41;53.83;94037.84;6286304;22;20003;-85
2022/03/31 08:00:56;;;;;;;58.05;12.15;;;;;;;11.56;53.35;93736.75;6266206;22;20011;-84
2022/03/31 08:03:25;;;;;;;54.08;9.40;;;;;;;13.96;52.54;94077.75;6296963;22;20003;-85
2022/03/31 08:05:53;;;;;;;64.00;10.77;;;;;;;13.01;53.14;93926.28;6304642;22;20554;-84
2022/03/31 08:08:20;;;;;;;68.90;11.70;;;;;;;12.90;53.11;93866.53;6317227;22;20022;-84
2022/03/31 08:10:46;;;;;;;63.05;12.40;;;;;;;13.82;52.98;94006.00;6318128;22;20019;-84
2022/03/31 08:13:12;;;;;;;48.30;12.45;;;;;;;14.48;52.69;94075.63;6315185;22;20066;-84
2022/03/31 08:15:39;;;;;;;58.80;13.10;;;;;;;13.22;52.00;93859.84;6297666;22;20011;-84
2022/03/31 08:18:05;;;;;;;69.75;12.07;;;;;;;14.03;50.73;93975.97;6292255;22;19999;-84
2022/03/31 08:20:30;;;;;;;70.68;11.48;;;;;;;14.17;50.30;93963.16;6290226;22;20022;-83
2022/03/31 08:22:56;;;;;;;67.28;12.30;;;;;;;14.56;50.86;94037.44;6291022;22;20441;-84
2022/03/31 08:25:21;;;;;;;65.25;10.35;;;;;;;12.16;50.75;93643.63;6286405;22;20074;-84
2022/03/31 08:27:48;;;;;;;47.35;10.35;;;;;;;15.02;50.52;94059.66;6285343;22;20022;-85
2022/03/31 08:30:16;;;;;;;56.75;9.15;;;;;;;15.25;50.01;94076.91;6288265;22;20454;-83
2022/03/31 08:32:43;;;;;;;59.63;8.65;;;;;;;14.82;48.90;93989.16;6290602;22;20038;-85
2022/03/31 08:35:10;;;;;;;51.97;7.93;;;;;;;14.50;49.78;93937.34;6281059;22;20007;-85
2022/03/31 08:37:40;;;;;;;62.83;8.80;;;;;;;15.45;49.41;94075.28;6285287;22;19999;-86
2022/03/31 08:40:08;;;;;;;40.53;6.43;;;;;;;14.69;48.80;93918.19;6262489;22;20101;-87
2022/03/31 08:42:34;;;;;;;48.83;7.82;;;;;;;14.87;48.26;93961.50;6285038;22;20237;-85
2022/03/31 08:45:01;;;;;;;50.67;8.15;;;;;;;14.04;48.99;93805.03;6286517;22;20042;-85
2022/03/31 08:47:27;;;;;;;57.55;7.60;;;;;;;14.27;48.72;93819.53;6284717;22;20389;-84
2022/03/31 08:49:57;;;;;;;52.00;7.65;;;;;;;13.30;48.26;93634.59;6285848;22;20149;-84
2022/03/31 08:52:23;;;;;;;50.30;6.93;;;;;;;14.07;48.09;93787.59;6284166;22;20098;-83
2022/03/31 08:54:49;;;;;;;60.13;9.95;;;;;;;13.13;47.26;93705.50;6286522;22;20007;-82
2022/03/31 08:57:16;;;;;;;60.38;12.43;;;;;;;13.73;46.99;93680.22;6281001;22;20015;-82
2022/03/31 08:59:41;;;;;;;64.70;10.88;;;;;;;14.17;48.13;93777.31;6286768;22;20039;-84
2022/03/31 09:02:08;;;;;;;46.45;7.72;;;;;;;14.25;47.07;93832.44;6288594;22;20050;-84
2022/03/31 09:04:34;;;;;;;52.08;9.75;;;;;;;11.65;47.76;93376.38;6290545;22;20061;-83
2022/03/31 09:07:07;;;;;;;57.13;10.52;;;;;;;14.39;47.75;93821.50;6286318;22;20027;-84
2022/03/31 09:09:52;;;;;;;46.10;9.32;;;;;;;15.53;47.45;93956.06;6287964;22;20015;-83
2022/03/31 09:12:17;;;;;;;56.50;8.30;;;;;;;13.99;47.13;93706.63;6290197;22;20106;-82
2022/03/31 09:14:43;;;;;;;44.53;8.40;;;;;;;15.01;47.05;93836.50;6286115;22;20454;-84
2022/03/31 09:17:16;;;;;;;49.08;7.43;;;;;;;15.63;47.33;93952.97;6284017;22;20010;-85
2022/03/31 09:19:45;;;;;;;58.60;9.23;;;;;;;15.83;46.68;93968.09;6288797;22;20046;-85
2022/03/31 09:22:14;;;;;;;47.13;8.10;;;;;;;16.08;46.44;93976.91;6291489;22;20011;-84
2022/03/31 09:24:42;;;;;;;43.30;6.95;;;;;;;15.11;46.85;93822.69;6285866;22;20107;-83
2022/03/31 09:27:07;;;;;;;59.78;8.35;;;;;;;14.35;47.07;93711.22;6284998;22;20490;-83
2022/03/31 09:29:34;;;;;;;44.72;7.75;;;;;;;16.33;46.99;93989.09;6285932;22;20130;-83
2022/03/31 09:32:10;;;;;;;42.60;8.07;;;;;;;16.49;46.81;94024.75;6260353;22;20007;-84
2022/03/31 09:34:50;;;;;;;67.05;8.50;;;;;;;15.99;46.74;93923.53;6284825;22;20244;-83
2022/03/31 09:37:16;;;;;;;47.75;7.30;;;;;;;16.09;46.23;93946.38;6285892;22;20018;-83
2022/03/31 09:39:42;;;;;;;62.25;7.72;;;;;;;15.94;46.92;93915.75;6283929;22;20632;-82
2022/03/31 09:42:17;;;;;;;69.43;7.93;;;;;;;16.69;46.34;93982.91;6283592;22;20015;-83
2022/03/31 09:44:43;;;;;;;40.03;6.47;;;;;;;17.08;45.83;94012.66;6280017;22;20106;-82
2022/03/31 09:47:11;;;;;;;47.28;7.80;;;;;;;16.58;46.60;93960.38;6285423;22;20018;-82
2022/03/31 09:49:37;;;;;;;47.55;8.63;;;;;;;17.23;46.03;93999.28;6286643;22;20108;-81
2022/03/31 09:52:08;;;;;;;50.65;8.18;;;;;;;16.33;45.73;93823.22;6283003;22;20011;-81
2022/03/31 09:54:34;;;;;;;60.75;8.55;;;;;;;16.53;45.38;93849.00;6283059;22;20011;-82
2022/03/31 09:57:02;;;;;;;45.92;6.70;;;;;;;15.04;45.89;93667.63;6287486;22;20082;-81
2022/03/31 09:59:33;;;;;;;53.22;7.55;;;;;;;17.46;45.14;94007.53;6286462;22;20007;-81
2022/03/31 10:02:00;;;;;;;43.10;8.07;;;;;;;17.59;44.80;94014.38;6287703;22;20011;-82
2022/03/31 10:04:26;;;;;;;34.45;7.95;;;;;;;17.62;45.14;94019.06;6290482;22;20093;-83
2022/03/31 10:06:52;;;;;;;58.65;8.55;;;;;;;16.56;45.22;93828.78;6286337;22;20446;-83
2022/03/31 10:09:18;;;;;;;54.60;7.45;;;;;;;16.94;45.22;93876.44;6279505;22;20011;-82
2022/03/31 10:11:47;;;;;;;47.53;7.20;;;;;;;17.71;44.75;93951.88;6281063;22;20015;-82
2022/03/31 10:14:45;;;;;;;58.05;7.55;;;;;;;18.09;44.22;93997.59;6287024;22;20622;-81
2022/03/31 10:17:11;;;;;;;53.83;8.40;;;;;;;17.34;43.47;93909.22;6282699;22;20711;-82
2022/03/31 10:19:39;;;;;;;57.20;7.85;;;;;;;17.01;43.86;93881.22;6280779;22;20090;-83
2022/03/31 10:25:03;;;;;;;68.95;7.90;;;;;;;13.45;44.31;93363.13;6293295;22;20049;-82
2022/03/31 10:27:31;;;;;;;56.58;8.88;;;;;;;16.35;44.68;93790.78;6282265;22;20106;-82
2022/03/31 10:30:18;;;;;;;56.67;7.20;;;;;;;17.21;42.99;93897.03;6284907;22;20362;-83
2022/03/31 10:33:02;;;;;;;44.78;9.32;;;;;;;13.81;42.81;93374.84;6284042;22;20010;-85
2022/03/31 10:35:32;;;;;;;45.67;7.55;;;;;;;16.46;43.38;93746.34;6281411;22;20011;-85
2022/03/31 10:38:18;;;;;;;46.75;7.10;;;;;;;14.09;43.12;93406.88;6280178;22;20007;-85
2022/03/31 10:40:50;;;;;;;46.25;7.30;;;;;;;15.98;43.53;93659.16;6280391;22;20587;-83
2022/03/31 10:43:23;;;;;;;;;;;;;;;17.87;43.43;93957.22;6280472;22;20063;-84
2022/03/31 10:45:50;;;;;;;44.17;6.93;;;;;;;17.98;42.72;93947.50;6285219;22;19975;-84
2022/03/31 10:48:21;;;;;;;48.22;6.72;;;;;;;17.63;42.78;93909.91;6280529;22;20014;-84
2022/03/31 10:50:47;;;;;;;;;;;;;;;17.90;43.13;93941.22;6286870;22;20011;-83
2022/03/31 10:53:13;;;;;;;60.40;8.45;;;;;;;16.15;42.50;93640.13;6286817;22;19915;-83
2022/03/31 10:55:55;;;;;;;58.28;8.55;;;;;;;17.43;42.53;93819.84;6288706;22;20014;-84
2022/03/31 10:58:26;;;;;;;51.42;7.90;;;;;;;18.26;42.50;93929.34;6286542;22;20011;-84
2022/03/31 11:01:02;;;;;;;50.53;9.50;;;;;;;17.97;42.35;93895.00;6285970;22;20007;-84
2022/03/31 11:03:28;;;;;;;56.42;8.55;;;;;;;17.64;42.72;93868.59;6263389;22;20905;-85
2022/03/31 11:06:00;;;;;;;67.97;10.73;;;;;;;18.24;42.43;93965.69;6262874;22;20007;-84
2022/03/31 11:08:26;;;;;;;59.92;8.20;;;;;;;17.44;42.74;93888.41;6285903;22;20046;-83
2022/03/31 11:10:54;;;;;;;50.30;8.15;;;;;;;15.89;42.63;93618.44;6288236;22;20611;-83
2022/03/31 11:13:32;;;;;;;52.63;9.48;;;;;;;15.11;42.68;93485.50;6287481;22;20475;-84
2022/03/31 11:15:57;;;;;;;62.10;10.00;;;;;;;17.85;42.74;93903.91;6287248;22;20080;-84
2022/03/31 11:18:23;;;;;;;54.75;9.07;;;;;;;17.39;42.74;93829.72;6287029;22;20898;-84
2022/03/31 11:20:56;;;;;;;47.42;8.63;;;;;;;17.66;42.55;93839.53;6281703;22;20063;-84
2022/03/31 11:23:21;;;;;;;73.65;13.90;;;;;;;17.73;42.87;93879.91;6290631;22;20127;-84
2022/03/31 11:25:47;;;;;;;55.78;10.80;;;;;;;17.32;43.54;93841.03;6289436;22;20098;-85
2022/03/31 11:28:13;;;;;;;46.67;9.18;;;;;;;17.56;43.23;93891.75;6288439;22;20007;-85
2022/03/31 11:30:40;;;;;;;52.53;8.88;;;;;;;17.81;43.29;93921.84;6290797;22;20617;-86
2022/03/31 11:33:09;;;;;;;44.58;7.07;;;;;;;17.81;43.88;93932.56;6289747;22;20011;-86
2022/03/31 11:35:35;;;;;;;61.53;9.05;;;;;;;17.67;43.15;93902.75;6290777;22;20011;-85
2022/03/31 11:38:02;;;;;;;37.35;7.05;;;;;;;17.21;42.78;93829.28;6288456;22;20011;-84
2022/03/31 11:40:29;;;;;;;47.67;6.22;;;;;;;17.52;45.36;93908.88;6287998;22;20041;-86
2022/03/31 11:42:58;;;;;;;43.80;7.03;;;;;;;17.76;45.60;93965.03;6287633;22;20011;-85
2022/03/31 11:45:36;;;;;;;33.85;6.07;;;;;;;17.38;45.31;93889.78;6290982;22;20014;-84